createdAt,value
2022-09-02T00:00:07.539Z,92.60
2022-09-02T00:02:35.476Z,92.90
2022-09-02T00:05:03.423Z,92.70
2022-09-02T00:07:31.790Z,93.00
2022-09-02T00:10:01.142Z,93.10
2022-09-02T00:12:28.820Z,93.20
2022-09-02T00:14:56.420Z,92.90
2022-09-02T00:17:24.064Z,93.00
2022-09-02T00:19:55.598Z,93.20
2022-09-02T00:22:24.264Z,93.20
2022-09-02T00:24:52.178Z,92.70
2022-09-02T00:27:19.905Z,92.70
2022-09-02T00:29:47.396Z,92.40
2022-09-02T00:32:14.995Z,92.60
2022-09-02T00:34:42.534Z,92.30
2022-09-02T00:37:10.249Z,92.50
2022-09-02T00:39:37.846Z,92.90
2022-09-02T00:42:06.179Z,93.00
2022-09-02T00:44:34.468Z,92.30
2022-09-02T00:47:02.574Z,91.70
2022-09-02T00:49:34.162Z,91.30
2022-09-02T00:52:20.897Z,91.40
2022-09-02T00:54:54.215Z,91.50
2022-09-02T00:57:25.695Z,91.70
2022-09-02T00:59:59.241Z,91.90
2022-09-02T01:02:32.132Z,92.50
2022-09-02T01:05:01.013Z,92.20
2022-09-02T01:07:34.623Z,92.50
2022-09-02T01:10:04.477Z,92.60
2022-09-02T01:12:33.076Z,92.60
2022-09-02T01:15:01.293Z,93.10
2022-09-02T01:17:29.188Z,93.80
2022-09-02T01:20:03.727Z,94.00
2022-09-02T01:22:33.269Z,94.40
2022-09-02T01:25:09.375Z,94.40
2022-09-02T01:27:37.194Z,94.80
2022-09-02T01:30:07.114Z,94.70
2022-09-02T01:32:34.923Z,94.50
2022-09-02T01:35:04.720Z,94.40
2022-09-02T01:37:32.693Z,94.30
2022-09-02T01:40:00.805Z,94.10
2022-09-02T01:42:29.140Z,94.30
2022-09-02T01:44:56.826Z,94.20
2022-09-02T01:47:27.130Z,94.20
2022-09-02T01:49:55.112Z,94.40
2022-09-02T01:52:24.336Z,94.50
2022-09-02T01:54:51.888Z,94.20
2022-09-02T01:57:20.253Z,93.90
2022-09-02T01:59:47.886Z,93.80
2022-09-02T02:02:16.215Z,93.90
2022-09-02T02:04:46.532Z,93.70
2022-09-02T02:07:15.774Z,93.30
2022-09-02T02:09:43.628Z,93.20
2022-09-02T02:12:12.292Z,93.10
2022-09-02T02:14:39.763Z,93.00
2022-09-02T02:17:07.338Z,92.60
2022-09-02T02:19:35.810Z,92.80
2022-09-02T02:22:04.074Z,92.80
2022-09-02T02:24:31.985Z,92.70
2022-09-02T02:26:59.653Z,92.70
2022-09-02T02:29:27.300Z,92.50
2022-09-02T02:31:54.914Z,92.80
2022-09-02T02:34:22.632Z,93.10
2022-09-02T02:36:50.427Z,93.90
2022-09-02T02:39:18.097Z,93.90
2022-09-02T02:41:47.051Z,94.00
2022-09-02T02:44:14.874Z,94.20
2022-09-02T02:46:42.735Z,94.10
2022-09-02T02:49:10.457Z,93.80
2022-09-02T02:51:38.822Z,93.60
2022-09-02T02:54:06.992Z,93.80
2022-09-02T02:56:35.169Z,93.40
2022-09-02T02:59:03.866Z,93.50
2022-09-02T03:01:32.858Z,93.90
2022-09-02T03:04:00.690Z,93.90
2022-09-02T03:06:29.512Z,93.90
2022-09-02T03:08:58.103Z,93.90
2022-09-02T03:11:28.683Z,93.60
2022-09-02T03:13:56.760Z,93.40
2022-09-02T03:16:24.573Z,93.40
2022-09-02T03:18:52.784Z,93.10
2022-09-02T03:21:20.676Z,92.80
2022-09-02T03:23:49.022Z,92.90
2022-09-02T03:26:20.455Z,92.90
2022-09-02T03:28:49.648Z,93.10
2022-09-02T03:31:20.944Z,93.40
2022-09-02T03:33:48.952Z,93.40
2022-09-02T03:36:21.987Z,93.30
2022-09-02T03:38:49.640Z,93.00
2022-09-02T03:41:17.267Z,93.00
2022-09-02T03:43:44.906Z,93.50
2022-09-02T03:46:13.711Z,93.20
2022-09-02T03:48:42.124Z,93.40
2022-09-02T03:51:09.628Z,93.30
2022-09-02T03:53:38.541Z,93.20
2022-09-02T03:56:12.720Z,93.50
2022-09-02T03:58:42.859Z,93.50
2022-09-02T04:01:24.180Z,93.70
2022-09-02T04:03:55.970Z,93.70
2022-09-02T04:06:26.225Z,93.70
2022-09-02T04:09:00.341Z,93.60
2022-09-02T04:11:27.931Z,93.70
2022-09-02T04:13:55.579Z,93.60
2022-09-02T04:16:29.244Z,93.70
2022-09-02T04:18:59.054Z,93.40
2022-09-02T04:21:27.244Z,93.50
2022-09-02T04:23:55.102Z,93.00
2022-09-02T04:26:23.867Z,93.30
2022-09-02T04:28:52.188Z,93.50
2022-09-02T04:31:21.516Z,93.60
2022-09-02T04:33:49.749Z,93.40
2022-09-02T04:36:18.583Z,93.20
2022-09-02T04:38:47.886Z,93.20
2022-09-02T04:41:25.146Z,93.30
2022-09-02T04:43:55.208Z,93.10
2022-09-02T04:46:28.040Z,93.40
2022-09-02T04:49:02.385Z,93.60
2022-09-02T04:51:30.550Z,93.50
2022-09-02T04:53:58.350Z,93.40
2022-09-02T04:56:29.066Z,95.00
2022-09-02T04:58:57.027Z,93.10
2022-09-02T05:01:34.581Z,90.60
2022-09-02T05:04:04.875Z,89.10
2022-09-02T05:06:32.427Z,89.20
2022-09-02T05:09:02.307Z,89.90
2022-09-02T05:11:32.186Z,90.20
2022-09-02T05:14:02.344Z,90.40
2022-09-02T05:16:33.227Z,90.70
2022-09-02T05:19:01.083Z,90.60
2022-09-02T05:21:28.663Z,91.00
2022-09-02T05:23:57.867Z,90.60
2022-09-02T05:26:26.182Z,90.60
2022-09-02T05:28:54.267Z,90.80
2022-09-02T05:31:22.791Z,91.00
2022-09-02T05:33:50.558Z,91.10
2022-09-02T05:36:20.799Z,90.30
2022-09-02T05:38:49.192Z,89.20
2022-09-02T05:41:23.662Z,89.80
2022-09-02T05:43:53.347Z,89.80
2022-09-02T05:46:23.939Z,90.10
2022-09-02T05:49:09.125Z,89.70
2022-09-02T05:51:48.905Z,90.90
2022-09-02T05:54:19.303Z,90.10
2022-09-02T05:56:49.948Z,89.40
2022-09-02T05:59:18.663Z,89.00
2022-09-02T06:01:46.985Z,88.60
2022-09-02T06:04:14.623Z,88.40
2022-09-02T06:06:43.093Z,88.40
2022-09-02T06:09:13.585Z,88.10
2022-09-02T06:11:46.511Z,87.30
2022-09-02T06:14:20.706Z,86.00
2022-09-02T06:16:49.348Z,85.90
2022-09-02T06:19:20.224Z,85.30
2022-09-02T06:21:49.232Z,85.30
2022-09-02T06:24:16.881Z,84.80
2022-09-02T06:26:44.914Z,86.00
2022-09-02T06:29:13.063Z,85.60
2022-09-02T06:31:45.262Z,85.00
2022-09-02T06:34:14.544Z,85.50
2022-09-02T06:36:44.307Z,85.60
2022-09-02T06:39:14.388Z,85.00
2022-09-02T06:41:44.107Z,84.20
2022-09-02T06:44:12.347Z,84.70
2022-09-02T06:46:46.909Z,85.60
2022-09-02T06:49:16.687Z,84.90
2022-09-02T06:51:47.026Z,85.20
2022-09-02T06:54:17.352Z,85.90
2022-09-02T06:56:49.204Z,85.40
2022-09-02T06:59:20.637Z,84.50
2022-09-02T07:01:49.168Z,82.90
2022-09-02T07:04:36.675Z,83.30
2022-09-02T07:07:06.316Z,83.70
2022-09-02T07:09:33.993Z,84.00
2022-09-02T07:12:05.283Z,83.20
2022-09-02T07:14:37.784Z,82.20
2022-09-02T07:17:06.405Z,80.00
2022-09-02T07:19:34.082Z,79.20
2022-09-02T07:22:03.143Z,79.90
2022-09-02T07:24:30.787Z,79.90
2022-09-02T07:26:58.797Z,79.80
2022-09-02T07:29:26.383Z,79.20
2022-09-02T07:31:54.143Z,79.30
2022-09-02T07:34:22.104Z,79.50
2022-09-02T07:36:49.947Z,79.00
2022-09-02T07:39:19.825Z,78.30
2022-09-02T07:41:50.636Z,77.10
2022-09-02T07:44:21.109Z,76.20
2022-09-02T07:46:48.904Z,76.90
2022-09-02T07:49:22.022Z,76.30
2022-09-02T07:51:52.426Z,75.20
2022-09-02T07:54:24.392Z,75.40
2022-09-02T07:56:52.512Z,74.20
2022-09-02T07:59:22.116Z,72.70
2022-09-02T08:01:50.719Z,72.30
2022-09-02T08:04:20.467Z,73.10
2022-09-02T08:06:48.385Z,71.60
2022-09-02T08:09:16.034Z,71.20
2022-09-02T08:11:47.036Z,69.00
2022-09-02T08:14:18.547Z,67.40
2022-09-02T08:16:47.902Z,66.90
2022-09-02T08:19:15.639Z,68.50
2022-09-02T08:21:43.297Z,68.50
2022-09-02T08:24:10.884Z,68.90
2022-09-02T08:26:38.796Z,64.50
2022-09-02T08:29:08.193Z,65.80
2022-09-02T08:31:38.326Z,67.60
2022-09-02T08:34:06.537Z,67.50
2022-09-02T08:36:34.667Z,69.60
2022-09-02T08:39:05.953Z,68.70
2022-09-02T08:41:52.064Z,68.00
2022-09-02T08:44:24.503Z,67.10
2022-09-02T08:46:57.031Z,64.80
2022-09-02T08:49:39.235Z,67.80
2022-09-02T08:52:07.196Z,63.20
2022-09-02T08:54:49.463Z,62.20
2022-09-02T08:57:17.673Z,62.40
2022-09-02T08:59:46.347Z,59.60
2022-09-02T09:02:16.746Z,61.40
2022-09-02T09:05:06.476Z,64.30
2022-09-02T09:07:58.368Z,62.90
2022-09-02T09:10:29.975Z,62.40
2022-09-02T09:13:04.912Z,61.30
2022-09-02T09:15:59.439Z,61.40
2022-09-02T09:18:41.854Z,60.00
2022-09-02T09:21:10.552Z,57.70
2022-09-02T09:23:42.186Z,60.00
2022-09-02T09:26:13.795Z,60.60
2022-09-02T09:28:49.414Z,59.40
2022-09-02T09:31:21.241Z,59.20
2022-09-02T09:34:10.145Z,57.60
2022-09-02T09:36:44.593Z,58.20
2022-09-02T09:39:33.072Z,58.00
2022-09-02T09:42:03.582Z,59.00
2022-09-02T09:44:46.519Z,58.50
2022-09-02T09:47:23.595Z,59.60
2022-09-02T09:49:53.786Z,59.80
2022-09-02T09:52:29.581Z,59.70
2022-09-02T09:55:24.798Z,61.40
2022-09-02T09:57:55.640Z,60.30
2022-09-02T10:00:33.578Z,59.00
2022-09-02T10:03:05.094Z,57.10
2022-09-02T10:05:41.072Z,58.80
2022-09-02T10:08:29.356Z,59.90
2022-09-02T10:11:06.914Z,59.70
2022-09-02T10:13:37.437Z,60.60
2022-09-02T10:16:45.868Z,57.70
2022-09-02T10:19:37.980Z,57.70
2022-09-02T10:22:19.865Z,57.50
2022-09-02T10:25:17.237Z,55.60
2022-09-02T10:28:22.203Z,54.20
2022-09-02T10:31:12.812Z,55.40
2022-09-02T10:33:58.670Z,56.30
2022-09-02T10:36:57.423Z,56.50
2022-09-02T10:39:45.250Z,56.60
2022-09-02T10:42:35.074Z,58.20
2022-09-02T10:45:15.901Z,59.00
2022-09-02T10:47:44.549Z,59.00
2022-09-02T10:50:31.495Z,57.00
2022-09-02T10:53:23.478Z,57.40
2022-09-02T10:55:51.141Z,58.60
2022-09-02T10:58:44.061Z,58.40
2022-09-02T11:01:23.837Z,58.20
2022-09-02T11:04:14.560Z,57.70
2022-09-02T11:07:01.827Z,58.50
2022-09-02T11:09:44.617Z,57.90
2022-09-02T11:12:18.681Z,59.20
2022-09-02T11:15:40.149Z,57.80
2022-09-02T11:18:35.595Z,57.10
2022-09-02T11:21:10.931Z,57.30
2022-09-02T11:23:47.256Z,57.70
2022-09-02T11:26:30.645Z,61.20
2022-09-02T11:29:21.993Z,61.40
2022-09-02T11:32:02.935Z,66.40
2022-09-02T11:34:40.362Z,65.80
2022-09-02T11:37:17.989Z,66.90
2022-09-02T11:39:59.213Z,63.40
2022-09-02T11:43:10.465Z,63.70
2022-09-02T11:46:14.823Z,60.10
2022-09-02T11:49:11.668Z,58.90
2022-09-02T11:52:16.749Z,60.70
2022-09-02T11:54:48.671Z,60.80
2022-09-02T11:57:24.085Z,61.70
2022-09-02T11:59:52.076Z,61.80
2022-09-02T12:02:36.236Z,63.50
2022-09-02T12:05:32.327Z,64.50
2022-09-02T12:08:36.022Z,62.00
2022-09-02T12:11:07.233Z,62.00
2022-09-02T12:16:21.499Z,62.20
2022-09-02T12:18:54.938Z,63.80
2022-09-02T12:21:23.938Z,64.30
2022-09-02T12:23:57.700Z,65.60
2022-09-02T12:26:51.067Z,66.20
2022-09-02T12:29:25.108Z,66.60
2022-09-02T12:31:53.711Z,64.00
2022-09-02T12:34:21.302Z,64.30
2022-09-02T12:36:59.977Z,64.80
2022-09-02T12:39:28.102Z,66.00
2022-09-02T12:41:58.671Z,65.90
2022-09-02T12:44:43.595Z,65.80
2022-09-02T12:47:40.438Z,64.80
2022-09-02T12:50:51.248Z,66.20
2022-09-02T12:53:25.065Z,63.20
2022-09-02T12:55:58.942Z,64.10
2022-09-02T12:58:27.431Z,63.80
2022-09-02T13:01:10.136Z,64.30
2022-09-02T13:04:06.452Z,65.80
2022-09-02T13:06:39.822Z,66.30
2022-09-02T13:09:10.931Z,64.70
2022-09-02T13:12:01.097Z,66.10
2022-09-02T13:14:50.141Z,64.00
2022-09-02T13:17:36.794Z,64.80
2022-09-02T13:20:24.649Z,64.00
2022-09-02T13:23:13.259Z,63.90
2022-09-02T13:26:48.329Z,64.60
2022-09-02T13:29:40.182Z,64.70
2022-09-02T13:32:10.632Z,66.30
2022-09-02T13:34:45.899Z,65.50
2022-09-02T13:37:32.003Z,61.70
2022-09-02T13:40:01.322Z,63.30
2022-09-02T13:42:32.869Z,64.40
2022-09-02T13:45:20.205Z,64.70
2022-09-02T13:47:51.206Z,63.10
2022-09-02T13:50:21.781Z,60.50
2022-09-02T13:55:52.446Z,61.80
2022-09-02T13:58:57.801Z,62.80
2022-09-02T14:01:35.467Z,63.60
2022-09-02T14:04:07.257Z,64.80
2022-09-02T14:06:48.731Z,64.90
2022-09-02T14:09:22.706Z,66.70
2022-09-02T14:11:51.041Z,67.70
2022-09-02T14:14:22.624Z,68.30
2022-09-02T14:16:50.457Z,68.60
2022-09-02T14:19:17.832Z,68.50
2022-09-02T14:21:51.616Z,69.00
2022-09-02T14:24:28.778Z,69.90
2022-09-02T14:27:00.718Z,70.50
2022-09-02T14:29:33.863Z,71.70
2022-09-02T14:32:13.982Z,72.40
2022-09-02T14:34:46.803Z,73.70
2022-09-02T14:37:26.452Z,74.60
2022-09-02T14:40:06.137Z,74.40
2022-09-02T14:42:34.788Z,73.20
2022-09-02T14:45:05.819Z,74.30
2022-09-02T14:47:39.559Z,74.40
2022-09-02T14:50:12.701Z,75.20
2022-09-02T14:52:48.472Z,75.10
2022-09-02T14:55:54.816Z,75.50
2022-09-02T14:58:27.100Z,75.20
2022-09-02T15:01:01.984Z,74.90
2022-09-02T15:03:31.858Z,75.40
2022-09-02T15:05:59.338Z,75.10
2022-09-02T15:08:27.001Z,75.20
2022-09-02T15:10:58.627Z,75.50
2022-09-02T15:13:28.457Z,75.70
2022-09-02T15:15:56.892Z,74.90
2022-09-02T15:18:24.793Z,75.40
2022-09-02T15:20:52.778Z,75.70
2022-09-02T15:23:21.040Z,74.70
2022-09-02T15:25:48.824Z,75.00
2022-09-02T15:28:16.537Z,74.90
2022-09-02T15:30:44.051Z,74.70
2022-09-02T15:33:16.667Z,74.70
2022-09-02T15:35:47.550Z,73.00
2022-09-02T15:38:15.527Z,73.80
2022-09-02T15:40:44.542Z,71.90
2022-09-02T15:43:14.340Z,72.00
2022-09-02T15:45:48.799Z,71.70
2022-09-02T15:48:16.518Z,71.90
2022-09-02T15:50:46.487Z,72.70
2022-09-02T15:53:15.700Z,72.80
2022-09-02T15:55:43.261Z,72.20
2022-09-02T15:58:12.384Z,72.10
2022-09-02T16:00:43.918Z,71.90
2022-09-02T16:03:11.857Z,71.40
2022-09-02T16:05:39.427Z,71.60
2022-09-02T16:08:06.971Z,71.70
2022-09-02T16:10:37.102Z,72.10
2022-09-02T16:13:04.876Z,70.50
2022-09-02T16:15:34.390Z,71.00
2022-09-02T16:18:02.055Z,70.90
2022-09-02T16:20:30.961Z,72.00
2022-09-02T16:22:58.676Z,69.50
2022-09-02T16:25:26.950Z,69.80
2022-09-02T16:27:56.017Z,69.00
2022-09-02T16:30:24.690Z,68.30
2022-09-02T16:32:54.082Z,69.90
2022-09-02T16:35:21.585Z,70.50
2022-09-02T16:37:50.000Z,70.40
2022-09-02T16:40:21.905Z,71.20
2022-09-02T16:42:50.127Z,71.40
2022-09-02T16:45:17.898Z,71.80
2022-09-02T16:47:46.932Z,72.40
2022-09-02T16:50:14.896Z,73.20
2022-09-02T16:52:42.503Z,73.70
2022-09-02T16:55:10.952Z,73.80
2022-09-02T16:57:39.050Z,74.20
2022-09-02T17:00:09.058Z,74.40
2022-09-02T17:02:37.031Z,74.50
2022-09-02T17:05:04.859Z,74.90
2022-09-02T17:07:32.355Z,75.20
2022-09-02T17:10:00.339Z,75.10
2022-09-02T17:12:27.835Z,77.00
2022-09-02T17:14:55.290Z,76.90
2022-09-02T17:17:22.852Z,77.10
2022-09-02T17:19:50.385Z,77.60
2022-09-02T17:22:18.060Z,77.70
2022-09-02T17:24:45.736Z,78.00
2022-09-02T17:27:13.455Z,78.10
2022-09-02T17:29:49.878Z,78.70
2022-09-02T17:32:19.629Z,78.90
2022-09-02T17:34:49.109Z,79.10
2022-09-02T17:37:16.665Z,79.40
2022-09-02T17:39:44.566Z,79.70
2022-09-02T17:42:13.949Z,80.00
2022-09-02T17:44:42.856Z,80.10
2022-09-02T17:47:16.562Z,81.10
2022-09-02T17:49:45.925Z,81.00
2022-09-02T17:52:15.817Z,81.60
2022-09-02T17:54:44.000Z,82.10
2022-09-02T17:57:17.802Z,82.40
2022-09-02T18:00:18.901Z,83.20
2022-09-02T18:03:15.325Z,83.50
2022-09-02T18:05:53.337Z,83.40
2022-09-02T18:08:36.856Z,84.20
2022-09-02T18:11:07.656Z,84.60
2022-09-02T18:13:57.015Z,84.30
2022-09-02T18:16:33.459Z,84.90
2022-09-02T18:19:14.058Z,85.00
2022-09-02T18:22:05.576Z,84.80
2022-09-02T18:24:45.266Z,84.90
2022-09-02T18:27:42.146Z,85.60
2022-09-02T18:30:13.978Z,85.90
2022-09-02T18:33:17.924Z,86.20
2022-09-02T18:35:55.792Z,86.10
2022-09-02T18:38:39.659Z,86.30
2022-09-02T18:41:38.359Z,86.40
2022-09-02T18:44:43.539Z,86.40
2022-09-02T18:47:22.698Z,87.70
2022-09-02T18:49:54.584Z,87.60
2022-09-02T18:52:30.238Z,87.80
2022-09-02T18:55:10.325Z,88.30
2022-09-02T18:57:53.712Z,87.60
2022-09-02T19:00:23.066Z,86.80
2022-09-02T19:03:01.484Z,87.20
2022-09-02T19:05:31.554Z,86.90
2022-09-02T19:08:33.581Z,87.30
2022-09-02T19:11:03.348Z,87.80
2022-09-02T19:13:38.072Z,87.70
2022-09-02T19:16:05.856Z,87.50
2022-09-02T19:18:33.427Z,87.20
2022-09-02T19:21:01.139Z,87.20
2022-09-02T19:23:29.987Z,87.30
2022-09-02T19:25:59.576Z,87.20
2022-09-02T19:28:28.339Z,87.00
2022-09-02T19:31:02.473Z,87.50
2022-09-02T19:33:32.536Z,87.80
2022-09-02T19:36:00.341Z,87.80
2022-09-02T19:38:28.720Z,88.00
2022-09-02T19:40:56.386Z,88.40
2022-09-02T19:43:24.032Z,88.70
2022-09-02T19:45:51.915Z,90.10
2022-09-02T19:48:20.520Z,90.40
2022-09-02T19:50:49.141Z,90.30
2022-09-02T19:53:26.132Z,90.50
2022-09-02T19:55:53.730Z,90.40
2022-09-02T19:58:21.297Z,90.40
2022-09-02T20:00:48.905Z,90.40
2022-09-02T20:03:17.009Z,90.30
2022-09-02T20:05:44.627Z,90.60
2022-09-02T20:08:12.391Z,91.70
2022-09-02T20:10:40.559Z,91.60
2022-09-02T20:13:12.664Z,90.30
2022-09-02T20:15:40.660Z,90.80
2022-09-02T20:18:12.077Z,90.80
2022-09-02T20:20:44.147Z,90.70
2022-09-02T20:23:17.080Z,91.20
2022-09-02T20:26:08.115Z,91.00
2022-09-02T20:28:35.721Z,90.90
2022-09-02T20:31:32.215Z,91.00
2022-09-02T20:34:30.015Z,91.20
2022-09-02T20:37:24.837Z,91.00
2022-09-02T20:40:07.782Z,91.10
2022-09-02T20:42:58.859Z,90.90
2022-09-02T20:45:38.399Z,90.90
2022-09-02T20:48:29.549Z,91.00
2022-09-02T20:51:08.298Z,91.40
2022-09-02T20:53:51.181Z,91.50
2022-09-02T20:56:44.819Z,91.60
2022-09-02T20:59:44.656Z,91.90
2022-09-02T21:02:15.315Z,92.20
2022-09-02T21:04:53.237Z,91.90
2022-09-02T21:07:25.501Z,91.80
2022-09-02T21:10:04.482Z,91.80
2022-09-02T21:12:47.467Z,91.70
2022-09-02T21:15:44.131Z,91.70
2022-09-02T21:18:16.114Z,91.60
2022-09-02T21:21:11.262Z,91.50
2022-09-02T21:23:45.829Z,91.40
2022-09-02T21:26:25.028Z,91.80
2022-09-02T21:29:18.019Z,91.90
2022-09-02T21:31:52.935Z,91.90
2022-09-02T21:34:36.834Z,91.60
2022-09-02T21:37:05.799Z,91.60
2022-09-02T21:39:38.504Z,91.80
2022-09-02T21:42:20.852Z,91.60
2022-09-02T21:45:13.932Z,91.90
2022-09-02T21:47:47.684Z,91.60
2022-09-02T21:50:28.432Z,91.40
2022-09-02T21:53:11.457Z,91.30
2022-09-02T21:56:00.637Z,91.50
2022-09-02T21:58:57.085Z,91.90
2022-09-02T22:01:31.758Z,91.20
2022-09-02T22:04:13.862Z,91.40
2022-09-02T22:06:48.224Z,91.60
2022-09-02T22:09:30.509Z,92.00
2022-09-02T22:12:15.885Z,92.30
2022-09-02T22:15:02.264Z,93.00
2022-09-02T22:17:51.990Z,92.90
2022-09-02T22:20:31.684Z,93.30
2022-09-02T22:23:16.084Z,92.70
2022-09-02T22:25:44.176Z,92.70
2022-09-02T22:28:21.484Z,92.70
2022-09-02T22:31:03.354Z,92.80
2022-09-02T22:33:37.287Z,92.40
2022-09-02T22:36:15.063Z,92.80
2022-09-02T22:38:49.289Z,92.50
2022-09-02T22:41:34.755Z,92.60
2022-09-02T22:44:22.912Z,92.70
2022-09-02T22:47:14.260Z,92.60
2022-09-02T22:50:09.484Z,93.20
2022-09-02T22:52:55.204Z,93.30
2022-09-02T22:55:39.399Z,93.30
2022-09-02T22:58:13.080Z,93.50
2022-09-02T23:00:54.928Z,93.40
2022-09-02T23:03:39.266Z,93.40
2022-09-02T23:06:20.351Z,93.40
2022-09-02T23:08:49.377Z,93.50
2022-09-02T23:11:28.848Z,93.20
2022-09-02T23:14:24.488Z,93.20
2022-09-02T23:17:09.004Z,93.40
2022-09-02T23:20:02.024Z,93.10
2022-09-02T23:22:42.385Z,92.80
2022-09-02T23:25:34.030Z,92.70
2022-09-02T23:28:04.954Z,92.00
2022-09-02T23:30:32.890Z,91.50
2022-09-02T23:33:06.187Z,91.70
2022-09-02T23:36:02.900Z,91.30
2022-09-02T23:39:38.410Z,91.50
2022-09-02T23:42:07.455Z,91.50
2022-09-02T23:44:35.125Z,91.20
2022-09-02T23:47:19.860Z,91.10
2022-09-02T23:50:07.708Z,90.50
2022-09-02T23:52:35.283Z,90.90
2022-09-02T23:55:17.354Z,91.20
2022-09-02T23:58:05.474Z,91.20
